createdAt,value
2018-12-03T00:01:42.305Z,10.40
2018-12-03T00:04:14.968Z,10.40
2018-12-03T00:06:43.052Z,10.30
2018-12-03T00:09:10.611Z,10.30
2018-12-03T00:11:38.110Z,10.30
2018-12-03T00:14:05.701Z,10.40
2018-12-03T00:16:33.234Z,10.40
2018-12-03T00:19:00.791Z,10.40
2018-12-03T00:21:28.337Z,10.40
2018-12-03T00:23:55.865Z,10.40
2018-12-03T00:26:23.409Z,10.40
2018-12-03T00:28:51.147Z,10.40
2018-12-03T00:31:18.677Z,10.50
2018-12-03T00:33:46.209Z,10.50
2018-12-03T00:36:13.721Z,10.40
2018-12-03T00:38:41.238Z,10.40
2018-12-03T00:41:08.679Z,10.30
2018-12-03T00:43:36.160Z,10.40
2018-12-03T00:46:03.685Z,10.40
2018-12-03T00:48:31.133Z,10.40
2018-12-03T00:50:58.564Z,10.40
2018-12-03T00:53:25.991Z,10.40
2018-12-03T00:55:53.521Z,10.40
2018-12-03T00:58:21.041Z,10.40
2018-12-03T01:00:48.539Z,10.50
2018-12-03T01:03:16.097Z,10.50
2018-12-03T01:05:43.610Z,10.50
2018-12-03T01:08:11.426Z,10.60
2018-12-03T01:10:38.880Z,10.50
2018-12-03T01:13:06.723Z,10.50
2018-12-03T01:15:34.262Z,10.50
2018-12-03T01:18:01.718Z,10.50
2018-12-03T01:20:29.177Z,10.60
2018-12-03T01:22:56.782Z,10.60
2018-12-03T01:25:24.275Z,10.60
2018-12-03T01:27:51.750Z,10.60
2018-12-03T01:30:19.276Z,10.60
2018-12-03T01:32:46.737Z,10.60
2018-12-03T01:35:14.293Z,10.70
2018-12-03T01:37:41.725Z,10.70
2018-12-03T01:40:10.324Z,10.70
2018-12-03T01:42:38.680Z,10.70
2018-12-03T01:45:11.493Z,10.70
2018-12-03T01:47:38.874Z,10.80
2018-12-03T01:50:11.595Z,10.80
2018-12-03T01:52:39.057Z,10.80
2018-12-03T01:55:07.917Z,10.80
2018-12-03T01:57:35.503Z,10.80
2018-12-03T02:00:03.707Z,10.80
2018-12-03T02:02:31.231Z,10.80
2018-12-03T02:04:58.648Z,10.70
2018-12-03T02:07:26.261Z,10.70
2018-12-03T02:09:53.705Z,10.70
2018-12-03T02:12:21.295Z,10.70
2018-12-03T02:14:48.770Z,10.70
2018-12-03T02:17:16.488Z,10.70
2018-12-03T02:19:43.886Z,10.80
2018-12-03T02:22:11.450Z,10.70
2018-12-03T02:24:38.920Z,10.70
2018-12-03T02:27:06.410Z,10.70
2018-12-03T02:29:33.798Z,10.70
2018-12-03T02:32:01.358Z,10.70
2018-12-03T02:34:28.758Z,10.70
2018-12-03T02:36:56.348Z,10.70
2018-12-03T02:39:23.764Z,10.70
2018-12-03T02:41:51.259Z,10.70
2018-12-03T02:44:18.659Z,10.70
2018-12-03T02:46:46.137Z,10.70
2018-12-03T02:49:13.600Z,10.70
2018-12-03T02:51:41.223Z,10.70
2018-12-03T02:54:08.638Z,10.70
2018-12-03T02:56:36.097Z,10.70
2018-12-03T02:59:03.600Z,10.70
2018-12-03T03:01:31.093Z,10.70
2018-12-03T03:03:58.577Z,10.70
2018-12-03T03:06:26.095Z,10.70
2018-12-03T03:08:53.661Z,10.60
2018-12-03T03:11:21.121Z,10.60
2018-12-03T03:13:48.543Z,10.70
2018-12-03T03:16:16.084Z,10.70
2018-12-03T03:18:43.554Z,10.70
2018-12-03T03:21:11.003Z,10.70
2018-12-03T03:23:38.473Z,10.80
2018-12-03T03:26:05.916Z,10.80
2018-12-03T03:28:33.441Z,10.80
2018-12-03T03:31:00.924Z,10.80
2018-12-03T03:33:28.385Z,10.80
2018-12-03T03:35:55.940Z,10.80
2018-12-03T03:38:23.471Z,10.80
2018-12-03T03:40:50.976Z,10.80
2018-12-03T03:43:18.458Z,10.80
2018-12-03T03:45:45.843Z,10.80
2018-12-03T03:48:13.250Z,10.80
2018-12-03T03:50:40.737Z,10.80
2018-12-03T03:53:08.264Z,10.80
2018-12-03T03:55:35.777Z,10.80
2018-12-03T03:58:03.236Z,10.80
2018-12-03T04:00:30.665Z,10.80
2018-12-03T04:02:58.071Z,10.80
2018-12-03T04:05:25.565Z,10.70
2018-12-03T04:07:53.313Z,10.70
2018-12-03T04:10:20.807Z,10.70
2018-12-03T04:12:48.303Z,10.70
2018-12-03T04:15:16.364Z,10.70
2018-12-03T04:17:44.207Z,10.70
2018-12-03T04:20:13.645Z,10.70
2018-12-03T04:22:41.323Z,10.70
2018-12-03T04:25:09.929Z,10.80
2018-12-03T04:27:37.459Z,10.80
2018-12-03T04:30:08.633Z,10.80
2018-12-03T04:32:36.047Z,10.80
2018-12-03T04:35:03.541Z,10.70
2018-12-03T04:37:30.969Z,10.70
2018-12-03T04:39:58.463Z,10.70
2018-12-03T04:42:25.927Z,10.70
2018-12-03T04:44:53.431Z,10.80
2018-12-03T04:47:20.995Z,10.80
2018-12-03T04:49:48.430Z,10.80
2018-12-03T04:52:15.990Z,10.80
2018-12-03T04:54:43.458Z,10.70
2018-12-03T04:57:10.917Z,10.80
2018-12-03T04:59:38.330Z,10.70
2018-12-03T05:02:06.185Z,10.70
2018-12-03T05:04:33.649Z,10.80
2018-12-03T05:07:01.087Z,10.80
2018-12-03T05:09:28.527Z,10.70
2018-12-03T05:11:56.020Z,10.70
2018-12-03T05:14:23.381Z,10.70
2018-12-03T05:16:50.756Z,10.70
2018-12-03T05:19:18.181Z,10.70
2018-12-03T05:21:46.360Z,10.70
2018-12-03T05:24:13.847Z,10.80
2018-12-03T05:26:41.215Z,10.80
2018-12-03T05:29:08.770Z,10.80
2018-12-03T05:31:36.305Z,10.80
2018-12-03T05:34:04.223Z,10.80
2018-12-03T05:36:31.621Z,10.80
2018-12-03T05:38:59.097Z,10.80
2018-12-03T05:41:26.623Z,10.90
2018-12-03T05:43:54.364Z,10.90
2018-12-03T05:46:21.865Z,10.80
2018-12-03T05:48:49.381Z,10.80
2018-12-03T05:51:16.893Z,10.80
2018-12-03T05:53:44.919Z,10.80
2018-12-03T05:56:12.447Z,10.90
2018-12-03T05:58:39.969Z,10.80
2018-12-03T06:01:07.555Z,10.80
2018-12-03T06:03:35.085Z,10.90
2018-12-03T06:06:02.585Z,10.90
2018-12-03T06:08:30.037Z,10.90
2018-12-03T06:10:57.505Z,10.80
2018-12-03T06:13:24.855Z,10.90
2018-12-03T06:15:52.345Z,10.90
2018-12-03T06:18:19.737Z,11.00
2018-12-03T06:20:47.290Z,10.90
2018-12-03T06:23:15.353Z,11.00
2018-12-03T06:25:42.873Z,11.00
2018-12-03T06:28:10.385Z,10.90
2018-12-03T06:30:38.023Z,10.90
2018-12-03T06:33:05.782Z,10.90
2018-12-03T06:35:33.224Z,10.90
2018-12-03T06:38:00.767Z,10.90
2018-12-03T06:40:29.587Z,10.90
2018-12-03T06:42:57.275Z,10.90
2018-12-03T06:45:25.353Z,11.00
2018-12-03T06:48:01.268Z,11.00
2018-12-03T06:50:28.767Z,11.00
2018-12-03T06:52:56.795Z,10.90
2018-12-03T06:55:24.313Z,10.90
2018-12-03T06:57:51.782Z,10.80
2018-12-03T07:00:20.556Z,10.80
2018-12-03T07:02:48.121Z,10.90
2018-12-03T07:05:15.574Z,10.90
2018-12-03T07:07:44.141Z,10.90
2018-12-03T07:10:13.024Z,10.90
2018-12-03T07:12:40.961Z,10.90
2018-12-03T07:15:10.825Z,10.90
2018-12-03T07:17:38.465Z,10.90
2018-12-03T07:20:09.069Z,11.00
2018-12-03T07:22:36.493Z,11.00
2018-12-03T07:25:04.233Z,11.00
2018-12-03T07:27:31.696Z,11.00
2018-12-03T07:29:59.155Z,11.00
2018-12-03T07:32:26.686Z,11.00
2018-12-03T07:34:54.041Z,10.90
2018-12-03T07:37:21.599Z,10.90
2018-12-03T07:39:49.645Z,10.90
2018-12-03T07:42:17.009Z,10.90
2018-12-03T07:44:44.492Z,10.90
2018-12-03T07:47:11.977Z,10.90
2018-12-03T07:49:39.801Z,10.90
2018-12-03T07:52:07.257Z,10.90
2018-12-03T07:54:34.715Z,10.80
2018-12-03T07:57:02.218Z,10.80
2018-12-03T07:59:29.864Z,10.80
2018-12-03T08:01:57.325Z,10.80
2018-12-03T08:04:24.858Z,10.80
2018-12-03T08:06:52.311Z,10.90
2018-12-03T08:09:19.867Z,10.90
2018-12-03T08:11:47.365Z,10.90
2018-12-03T08:14:14.883Z,10.90
2018-12-03T08:16:42.400Z,10.90
2018-12-03T08:19:09.889Z,10.90
2018-12-03T08:21:37.309Z,10.90
2018-12-03T08:24:09.304Z,10.90
2018-12-03T08:26:36.701Z,11.00
2018-12-03T08:29:04.375Z,11.00
2018-12-03T08:31:31.837Z,11.00
2018-12-03T08:33:59.257Z,11.00
2018-12-03T08:36:26.710Z,11.00
2018-12-03T08:38:54.116Z,11.10
2018-12-03T08:41:21.590Z,11.30
2018-12-03T08:43:49.071Z,11.30
2018-12-03T08:46:16.673Z,11.30
2018-12-03T08:48:44.100Z,11.30
2018-12-03T08:51:11.964Z,11.30
2018-12-03T08:53:39.613Z,11.20
2018-12-03T08:56:07.198Z,11.20
2018-12-03T08:58:34.671Z,11.20
2018-12-03T09:01:06.686Z,11.10
2018-12-03T09:03:34.419Z,11.10
2018-12-03T09:06:08.449Z,11.10
2018-12-03T09:08:35.994Z,11.10
2018-12-03T09:11:03.535Z,11.10
2018-12-03T09:13:31.049Z,11.00
2018-12-03T09:16:01.270Z,11.00
2018-12-03T09:18:32.949Z,11.00
2018-12-03T09:21:00.659Z,11.00
2018-12-03T09:23:28.796Z,10.90
2018-12-03T09:25:56.422Z,10.90
2018-12-03T09:28:24.006Z,10.90
2018-12-03T09:30:51.512Z,10.90
2018-12-03T09:33:19.099Z,10.80
2018-12-03T09:35:46.504Z,10.90
2018-12-03T09:38:13.976Z,10.90
2018-12-03T09:40:41.676Z,10.90
2018-12-03T09:43:09.092Z,10.80
2018-12-03T09:45:36.762Z,10.90
2018-12-03T09:48:04.798Z,10.90
2018-12-03T09:50:32.251Z,10.90
2018-12-03T09:52:59.781Z,10.90
2018-12-03T09:55:29.487Z,10.90
2018-12-03T09:58:01.691Z,11.10
2018-12-03T10:00:29.201Z,11.20
2018-12-03T10:02:58.313Z,11.20
2018-12-03T10:05:28.523Z,11.30
2018-12-03T10:07:55.962Z,11.70
2018-12-03T10:10:23.410Z,12.40
2018-12-03T10:12:50.826Z,12.20
2018-12-03T10:15:19.280Z,12.00
2018-12-03T10:17:49.706Z,12.00
2018-12-03T10:20:17.143Z,11.80
2018-12-03T10:22:48.441Z,11.70
2018-12-03T10:25:16.785Z,11.70
2018-12-03T10:27:44.246Z,11.90
2018-12-03T10:30:18.694Z,11.90
2018-12-03T10:32:47.686Z,11.90
2018-12-03T10:35:15.248Z,11.70
2018-12-03T10:37:42.673Z,11.70
2018-12-03T10:40:20.444Z,11.60
2018-12-03T10:42:48.791Z,11.50
2018-12-03T10:45:25.955Z,11.50
2018-12-03T10:47:48.621Z,11.50
2018-12-03T10:50:22.261Z,11.50
2018-12-03T10:52:45.229Z,11.50
2018-12-03T10:55:13.101Z,11.50
2018-12-03T10:57:41.980Z,11.50
2018-12-03T11:00:20.024Z,11.50
2018-12-03T11:02:53.849Z,11.50
2018-12-03T11:05:29.173Z,11.50
2018-12-03T11:07:56.737Z,11.50
2018-12-03T11:10:25.535Z,11.50
2018-12-03T11:12:53.561Z,11.40
2018-12-03T11:15:21.832Z,11.40
2018-12-03T11:17:49.404Z,11.40
2018-12-03T11:20:17.102Z,11.40
2018-12-03T11:22:45.236Z,11.40
2018-12-03T11:25:14.779Z,11.40
2018-12-03T11:27:44.647Z,11.40
2018-12-03T11:30:12.787Z,11.40
2018-12-03T11:32:40.321Z,11.50
2018-12-03T11:35:09.495Z,11.50
2018-12-03T11:37:38.874Z,11.50
2018-12-03T11:40:24.480Z,11.50
2018-12-03T11:42:52.962Z,11.60
2018-12-03T11:45:20.396Z,11.60
2018-12-03T11:47:47.832Z,11.60
2018-12-03T11:50:15.409Z,11.70
2018-12-03T11:52:42.926Z,11.70
2018-12-03T11:55:10.364Z,11.80
2018-12-03T11:57:37.836Z,11.80
2018-12-03T12:00:10.268Z,11.80
2018-12-03T12:02:37.740Z,11.80
2018-12-03T12:05:06.417Z,11.80
2018-12-03T12:07:33.955Z,11.80
2018-12-03T12:10:01.481Z,11.70
2018-12-03T12:12:29.828Z,11.70
2018-12-03T12:14:57.250Z,11.70
2018-12-03T12:17:24.718Z,11.80
2018-12-03T12:19:52.206Z,11.70
2018-12-03T12:22:19.666Z,11.80
2018-12-03T12:24:47.099Z,11.80
2018-12-03T12:27:14.516Z,11.80
2018-12-03T12:29:42.009Z,11.80
2018-12-03T12:32:09.471Z,11.80
2018-12-03T12:34:36.869Z,11.80
2018-12-03T12:37:04.460Z,11.70
2018-12-03T12:39:31.905Z,11.70
2018-12-03T12:41:59.367Z,11.70
2018-12-03T12:44:26.936Z,11.60
2018-12-03T12:46:54.396Z,11.60
2018-12-03T12:49:21.880Z,11.60
2018-12-03T12:51:51.693Z,11.60
2018-12-03T12:54:17.469Z,11.60
2018-12-03T12:56:44.857Z,11.60
2018-12-03T12:59:12.416Z,11.60
2018-12-03T13:01:39.924Z,11.60
2018-12-03T13:04:07.492Z,11.70
2018-12-03T13:06:34.970Z,11.70
2018-12-03T13:09:02.646Z,11.60
2018-12-03T13:11:30.248Z,11.60
2018-12-03T13:13:57.691Z,11.50
2018-12-03T13:16:25.128Z,11.50
2018-12-03T13:18:52.660Z,11.50
2018-12-03T13:21:20.276Z,11.50
2018-12-03T13:23:47.831Z,11.50
2018-12-03T13:26:15.539Z,11.50
2018-12-03T13:28:43.002Z,11.40
2018-12-03T13:31:10.455Z,11.40
2018-12-03T13:33:37.921Z,11.40
2018-12-03T13:36:07.037Z,11.40
2018-12-03T13:38:34.587Z,11.40
2018-12-03T13:41:02.128Z,11.30
2018-12-03T13:43:29.738Z,11.30
2018-12-03T13:45:57.279Z,11.30
2018-12-03T13:48:25.033Z,11.30
2018-12-03T13:50:52.727Z,11.30
2018-12-03T13:53:20.398Z,11.30
2018-12-03T13:55:47.882Z,11.20
2018-12-03T13:58:15.368Z,11.20
2018-12-03T14:00:42.864Z,11.20
2018-12-03T14:03:18.201Z,11.10
2018-12-03T14:05:55.697Z,11.10
2018-12-03T14:08:34.064Z,11.00
2018-12-03T14:11:29.718Z,11.00
2018-12-03T14:14:07.658Z,10.90
2018-12-03T14:17:17.125Z,10.90
2018-12-03T14:19:47.792Z,10.80
2018-12-03T14:22:18.131Z,10.70
2018-12-03T14:24:45.787Z,10.60
2018-12-03T14:27:13.302Z,10.60
2018-12-03T14:29:40.805Z,10.60
2018-12-03T14:32:08.436Z,10.70
2018-12-03T14:34:36.842Z,10.60
2018-12-03T14:37:04.420Z,10.60
2018-12-03T14:39:32.191Z,10.60
2018-12-03T14:41:59.714Z,10.60
2018-12-03T14:44:27.286Z,10.60
2018-12-03T14:46:54.796Z,10.50
2018-12-03T14:49:23.879Z,10.50
2018-12-03T14:51:51.352Z,10.50
2018-12-03T14:54:18.848Z,10.60
2018-12-03T14:56:46.489Z,10.50
2018-12-03T14:59:14.014Z,10.40
2018-12-03T15:01:41.569Z,10.40
2018-12-03T15:04:11.256Z,10.40
2018-12-03T15:06:39.986Z,10.40
2018-12-03T15:09:07.874Z,10.30
2018-12-03T15:11:36.179Z,10.30
2018-12-03T15:14:03.808Z,10.30
2018-12-03T15:16:31.840Z,10.40
2018-12-03T15:18:59.772Z,10.40
2018-12-03T15:21:27.604Z,10.40
2018-12-03T15:23:55.108Z,10.40
2018-12-03T15:26:22.522Z,10.30
2018-12-03T15:28:50.054Z,10.30
2018-12-03T15:31:17.471Z,10.20
2018-12-03T15:33:44.901Z,10.20
2018-12-03T15:36:12.331Z,10.20
2018-12-03T15:38:39.795Z,10.20
2018-12-03T15:41:07.280Z,10.10
2018-12-03T15:43:35.311Z,10.10
2018-12-03T15:46:02.764Z,10.10
2018-12-03T15:48:30.334Z,10.10
2018-12-03T15:50:57.892Z,10.20
2018-12-03T15:53:25.331Z,10.20
2018-12-03T15:55:52.767Z,10.20
2018-12-03T15:58:20.419Z,10.20
2018-12-03T16:00:47.872Z,10.10
2018-12-03T16:03:15.611Z,10.20
2018-12-03T16:05:43.039Z,10.20
2018-12-03T16:08:10.580Z,10.10
2018-12-03T16:10:38.033Z,10.10
2018-12-03T16:13:05.710Z,10.10
2018-12-03T16:15:33.565Z,10.10
2018-12-03T16:18:01.191Z,10.10
2018-12-03T16:20:28.738Z,10.10
2018-12-03T16:22:56.281Z,10.10
2018-12-03T16:25:23.914Z,10.10
2018-12-03T16:27:51.403Z,10.10
2018-12-03T16:30:20.885Z,10.10
2018-12-03T16:32:48.538Z,10.10
2018-12-03T16:35:16.187Z,10.10
2018-12-03T16:37:43.763Z,10.10
2018-12-03T16:40:11.227Z,10.10
2018-12-03T16:42:38.707Z,10.10
2018-12-03T16:45:07.258Z,10.00
2018-12-03T16:47:34.704Z,10.10
2018-12-03T16:50:02.223Z,10.00
2018-12-03T16:52:29.612Z,9.90
2018-12-03T16:54:57.133Z,9.90
2018-12-03T16:57:24.627Z,9.90
2018-12-03T16:59:52.141Z,9.80
2018-12-03T17:02:19.653Z,9.80
2018-12-03T17:04:47.246Z,9.80
2018-12-03T17:07:14.792Z,9.90
2018-12-03T17:09:42.488Z,9.90
2018-12-03T17:12:10.211Z,9.70
2018-12-03T17:14:37.746Z,9.70
2018-12-03T17:17:05.242Z,9.70
2018-12-03T17:19:33.412Z,9.80
2018-12-03T17:22:37.395Z,9.70
2018-12-03T17:25:09.977Z,9.70
2018-12-03T17:27:37.438Z,9.70
2018-12-03T17:30:05.909Z,9.80
2018-12-03T17:32:33.471Z,9.80
2018-12-03T17:35:01.024Z,9.80
2018-12-03T17:37:28.651Z,9.80
2018-12-03T17:39:56.121Z,9.90
2018-12-03T17:42:23.671Z,9.80
2018-12-03T17:44:51.188Z,9.80
2018-12-03T17:47:18.629Z,9.80
2018-12-03T17:49:46.091Z,9.80
2018-12-03T17:52:13.567Z,9.80
2018-12-03T17:54:41.086Z,9.80
2018-12-03T17:57:08.677Z,9.80
2018-12-03T17:59:36.386Z,9.80
2018-12-03T18:02:04.621Z,9.70
2018-12-03T18:04:32.079Z,9.70
2018-12-03T18:06:59.545Z,9.80
2018-12-03T18:09:27.076Z,9.80
2018-12-03T18:11:54.658Z,9.80
2018-12-03T18:14:22.205Z,9.90
2018-12-03T18:16:49.699Z,9.90
2018-12-03T18:19:17.177Z,9.90
2018-12-03T18:21:44.712Z,9.90
2018-12-03T18:24:12.226Z,9.90
2018-12-03T18:26:39.702Z,9.90
2018-12-03T18:29:07.183Z,10.00
2018-12-03T18:31:34.613Z,9.90
2018-12-03T18:34:02.051Z,10.00
2018-12-03T18:36:29.457Z,10.10
2018-12-03T18:38:57.016Z,10.00
2018-12-03T18:41:24.640Z,10.00
2018-12-03T18:43:52.200Z,9.90
2018-12-03T18:46:19.747Z,9.90
2018-12-03T18:48:49.979Z,9.90
2018-12-03T18:51:17.451Z,9.90
2018-12-03T18:53:45.087Z,9.90
2018-12-03T18:56:12.669Z,9.90
2018-12-03T18:58:45.051Z,9.80
2018-12-03T19:01:13.285Z,9.70
2018-12-03T19:03:40.761Z,9.80
2018-12-03T19:06:09.075Z,9.80
2018-12-03T19:08:36.639Z,9.80
2018-12-03T19:13:58.027Z,9.80
2018-12-03T19:16:25.702Z,9.80
2018-12-03T19:18:53.220Z,9.90
2018-12-03T19:21:20.743Z,9.90
2018-12-03T19:23:48.203Z,9.90
2018-12-03T19:26:15.592Z,9.90
2018-12-03T19:28:43.169Z,9.90
2018-12-03T19:31:10.600Z,9.80
2018-12-03T19:33:38.152Z,9.90
2018-12-03T19:36:05.815Z,9.90
2018-12-03T19:38:33.389Z,9.90
2018-12-03T19:41:00.907Z,9.90
2018-12-03T19:43:28.451Z,9.90
2018-12-03T19:45:56.001Z,9.90
2018-12-03T19:48:23.689Z,9.90
2018-12-03T19:50:51.416Z,9.90
2018-12-03T19:53:19.037Z,9.90
2018-12-03T19:55:47.555Z,9.80
2018-12-03T19:58:19.097Z,9.80
2018-12-03T20:00:47.885Z,9.70
2018-12-03T20:03:15.519Z,9.60
2018-12-03T20:05:42.989Z,9.70
2018-12-03T20:08:10.768Z,9.70
2018-12-03T20:10:38.171Z,9.70
2018-12-03T20:13:05.681Z,9.70
2018-12-03T20:15:34.262Z,9.70
2018-12-03T20:18:01.824Z,9.70
2018-12-03T20:20:38.308Z,9.70
2018-12-03T20:23:33.448Z,9.70
2018-12-03T20:25:59.616Z,9.80
2018-12-03T20:28:25.812Z,9.80
2018-12-03T20:30:55.702Z,9.90
2018-12-03T20:33:22.157Z,9.90
2018-12-03T20:35:48.314Z,9.80
2018-12-03T20:38:14.533Z,9.80
2018-12-03T20:40:40.970Z,9.80
2018-12-03T20:43:07.609Z,9.80
2018-12-03T20:45:37.789Z,9.80
2018-12-03T20:48:04.851Z,9.80
2018-12-03T20:50:31.628Z,9.80
2018-12-03T20:52:57.822Z,9.70
2018-12-03T20:55:24.005Z,9.80
2018-12-03T20:57:50.202Z,9.80
2018-12-03T21:00:16.630Z,9.80
2018-12-03T21:02:42.908Z,9.70
2018-12-03T21:05:09.104Z,9.70
2018-12-03T21:07:35.276Z,9.70
2018-12-03T21:10:01.646Z,9.70
2018-12-03T21:12:27.790Z,9.70
2018-12-03T21:14:53.944Z,9.80
2018-12-03T21:17:20.147Z,9.70
2018-12-03T21:19:48.317Z,9.70
2018-12-03T21:22:14.630Z,9.70
2018-12-03T21:24:40.816Z,9.60
2018-12-03T21:27:06.999Z,9.60
2018-12-03T21:29:33.123Z,9.60
2018-12-03T21:31:59.271Z,9.60
2018-12-03T21:34:25.416Z,9.60
2018-12-03T21:36:51.579Z,9.60
2018-12-03T21:39:17.776Z,9.70
2018-12-03T21:41:43.978Z,9.70
2018-12-03T21:44:10.161Z,9.60
2018-12-03T21:46:36.294Z,9.70
2018-12-03T21:49:02.506Z,9.60
2018-12-03T21:51:28.845Z,9.60
2018-12-03T21:53:54.985Z,9.60
2018-12-03T21:56:21.160Z,9.60
2018-12-03T21:58:47.301Z,9.60
2018-12-03T22:01:13.404Z,9.60
2018-12-03T22:03:39.599Z,9.60
2018-12-03T22:06:05.741Z,9.60
2018-12-03T22:08:31.911Z,9.60
2018-12-03T22:10:58.153Z,9.60
2018-12-03T22:13:24.336Z,9.60
2018-12-03T22:15:50.519Z,9.60
2018-12-03T22:18:16.704Z,9.60
2018-12-03T22:20:42.980Z,9.60
2018-12-03T22:23:09.125Z,9.70
2018-12-03T22:25:35.455Z,9.70
2018-12-03T22:28:01.670Z,9.70
2018-12-03T22:30:27.843Z,9.70
2018-12-03T22:32:53.996Z,9.70
2018-12-03T22:35:20.197Z,9.70
2018-12-03T22:37:46.332Z,9.60
2018-12-03T22:40:12.521Z,9.60
2018-12-03T22:42:38.715Z,9.50
2018-12-03T22:45:05.410Z,9.60
2018-12-03T22:47:31.567Z,9.60
2018-12-03T22:49:57.701Z,9.50
2018-12-03T22:52:23.826Z,9.60
2018-12-03T22:54:49.962Z,9.60
2018-12-03T22:57:16.121Z,9.50
2018-12-03T22:59:42.387Z,9.50
2018-12-03T23:02:08.556Z,9.50
2018-12-03T23:04:36.878Z,9.60
2018-12-03T23:07:03.055Z,9.60
2018-12-03T23:09:29.177Z,9.50
2018-12-03T23:11:55.389Z,9.50
2018-12-03T23:14:21.579Z,9.50
2018-12-03T23:16:47.808Z,9.50
2018-12-03T23:19:14.050Z,9.50
2018-12-03T23:21:40.268Z,9.50
2018-12-03T23:24:06.434Z,9.50
2018-12-03T23:26:32.636Z,9.50
2018-12-03T23:28:58.758Z,9.50
2018-12-03T23:31:24.910Z,9.50
2018-12-03T23:33:51.064Z,9.50
2018-12-03T23:36:17.338Z,9.50
2018-12-03T23:38:43.553Z,9.50
2018-12-03T23:41:09.719Z,9.50
2018-12-03T23:43:36.047Z,9.50
2018-12-03T23:46:02.199Z,9.50
2018-12-03T23:48:28.373Z,9.40
2018-12-03T23:50:54.494Z,9.40
2018-12-03T23:53:20.751Z,9.40
2018-12-03T23:55:46.874Z,9.40
2018-12-03T23:58:13.166Z,9.40
